Time;durP1;ratioP1;P1;durP2;ratioP2;P2;SDS_P1;SDS_P2;PMS_P1;PMS_P2;Temp;Humidity;BMP_temperature;BMP_pressure;BME280_temperature;BME280_humidity;BME280_pressure;Samples;Min_cycle;Max_cycle;Signal;HPM_P1;HPM_P2
2023/10/06 00:02:28;;;;;;;11.53;6.80;;;;;;;;;;5055735;28;20215;-75
2023/10/06 00:04:54;;;;;;;15.17;7.03;;;;;;;;;;5043443;28;20184;-74
2023/10/06 00:07:23;;;;;;;16.23;6.80;;;;;;;;;;5056315;28;20284;-75
2023/10/06 00:09:51;;;;;;;12.63;6.63;;;;;;;;;;5053987;28;20187;-74
2023/10/06 00:12:17;;;;;;;13.43;7.07;;;;;;;;;;5030378;28;20242;-75
2023/10/06 00:14:43;;;;;;;12.00;6.80;;;;;;;;;;5051449;28;20184;-74
2023/10/06 00:17:15;;;;;;;11.60;6.90;;;;;;;;;;5050556;28;20176;-75
2023/10/06 00:19:41;;;;;;;13.67;7.30;;;;;;;;;;5048084;28;20184;-74
2023/10/06 00:24:43;;;;;;;12.87;7.13;;;;;;;;;;5050086;28;20275;-75
2023/10/06 00:27:11;;;;;;;11.63;6.97;;;;;;;;;;5046635;28;20181;-76
2023/10/06 00:29:54;;;;;;;13.87;7.30;;;;;;;;;;5047696;28;20236;-76
2023/10/06 00:32:25;;;;;;;12.70;7.27;;;;;;;;;;5048822;28;20179;-76
2023/10/06 00:35:22;;;;;;;14.93;7.40;;;;;;;;;;5047052;28;20267;-75
2023/10/06 00:37:50;;;;;;;15.40;7.80;;;;;;;;;;5054464;28;20200;-74
2023/10/06 00:40:24;;;;;;;13.33;7.70;;;;;;;;;;5031662;28;20263;-75
2023/10/06 00:42:51;;;;;;;14.43;7.70;;;;;;;;;;5034552;28;20278;-77
2023/10/06 00:45:17;;;;;;;12.90;7.13;;;;;;;;;;5052047;28;20217;-78
2023/10/06 00:47:43;;;;;;;15.30;7.67;;;;;;;;;;5050906;28;20176;-78
2023/10/06 00:50:14;;;;;;;13.27;7.20;;;;;;;;;;5044876;28;20259;-77
2023/10/06 00:52:40;;;;;;;14.57;7.47;;;;;;;;;;5051354;28;20192;-77
2023/10/06 00:55:10;;;;;;;12.93;7.20;;;;;;;;;;5045227;28;20208;-78
2023/10/06 00:57:36;;;;;;;17.27;8.17;;;;;;;;;;5049778;28;20175;-78
2023/10/06 01:00:06;;;;;;;14.73;7.53;;;;;;;;;;5056242;28;20187;-75
2023/10/06 01:02:33;;;;;;;12.93;7.27;;;;;;;;;;5046255;28;20219;-75
2023/10/06 01:05:00;;;;;;;13.50;7.20;;;;;;;;;;5046732;28;20275;-75
2023/10/06 01:07:26;;;;;;;16.00;7.97;;;;;;;;;;5055671;28;20214;-75
2023/10/06 01:09:57;;;;;;;14.17;7.80;;;;;;;;;;5046882;28;20307;-75
2023/10/06 01:12:29;;;;;;;11.53;7.50;;;;;;;;;;5055083;28;20180;-76
2023/10/06 01:15:09;;;;;;;18.07;7.57;;;;;;;;;;5032640;28;20210;-76
2023/10/06 01:17:35;;;;;;;11.53;7.07;;;;;;;;;;5048486;28;20211;-75
2023/10/06 01:20:02;;;;;;;11.97;6.97;;;;;;;;;;5048451;28;20184;-76
2023/10/06 01:22:29;;;;;;;13.33;7.80;;;;;;;;;;5029554;28;20207;-75
2023/10/06 01:24:58;;;;;;;13.03;7.40;;;;;;;;;;5027246;28;20188;-76
2023/10/06 01:27:27;;;;;;;15.30;7.83;;;;;;;;;;5031769;28;20210;-74
2023/10/06 01:32:45;;;;;;;15.57;8.53;;;;;;;;;;5057100;28;20202;-75
2023/10/06 01:35:23;;;;;;;12.33;8.40;;;;;;;;;;5054589;28;20184;-74
2023/10/06 01:38:00;;;;;;;16.70;9.20;;;;;;;;;;5064157;28;20240;-74
2023/10/06 01:42:53;;;;;;;14.50;9.00;;;;;;;;;;5076235;28;20186;-74
2023/10/06 01:45:22;;;;;;;15.03;9.17;;;;;;;;;;5057677;28;20191;-74
2023/10/06 01:50:50;;;;;;;17.33;8.33;;;;;;;;;;4999951;28;20192;-78
2023/10/06 01:53:20;;;;;;;14.47;8.23;;;;;;;;;;5040043;28;20172;-78
2023/10/06 01:55:51;;;;;;;15.90;8.37;;;;;;;;;;5069749;28;20187;-78
2023/10/06 01:58:17;;;;;;;15.33;8.20;;;;;;;;;;5055877;28;20249;-78
2023/10/06 02:00:47;;;;;;;13.73;8.60;;;;;;;;;;5035044;28;20212;-78
2023/10/06 02:03:16;;;;;;;12.47;8.50;;;;;;;;;;5035954;28;20172;-78
2023/10/06 02:05:42;;;;;;;13.93;8.07;;;;;;;;;;5053158;28;20200;-77
2023/10/06 02:08:21;;;;;;;13.40;8.33;;;;;;;;;;5037789;28;20207;-78
2023/10/06 02:10:50;;;;;;;15.27;8.23;;;;;;;;;;5054575;28;20187;-78
2023/10/06 02:13:22;;;;;;;13.90;8.07;;;;;;;;;;5054505;28;20188;-78
2023/10/06 02:16:01;;;;;;;14.70;8.50;;;;;;;;;;5053818;28;20183;-78
2023/10/06 02:18:35;;;;;;;14.03;8.13;;;;;;;;;;5054382;28;20191;-78
2023/10/06 02:21:11;;;;;;;13.53;8.30;;;;;;;;;;5054244;28;20234;-78
2023/10/06 02:23:41;;;;;;;15.53;8.50;;;;;;;;;;5054810;28;20172;-78
2023/10/06 02:26:09;;;;;;;12.33;8.13;;;;;;;;;;5054586;28;20210;-78
2023/10/06 02:28:40;;;;;;;17.23;8.87;;;;;;;;;;5038166;28;20228;-76
2023/10/06 02:31:07;;;;;;;13.80;8.20;;;;;;;;;;5055391;28;20259;-76
2023/10/06 02:33:36;;;;;;;14.73;7.43;;;;;;;;;;5037606;28;20187;-76
2023/10/06 02:36:13;;;;;;;14.87;8.33;;;;;;;;;;5054186;28;20202;-76
2023/10/06 02:38:41;;;;;;;15.80;8.07;;;;;;;;;;5039725;28;20199;-76
2023/10/06 02:41:07;;;;;;;14.77;7.70;;;;;;;;;;5073130;28;20275;-74
2023/10/06 02:43:34;;;;;;;14.17;7.83;;;;;;;;;;5068403;28;20180;-74
2023/10/06 02:46:07;;;;;;;14.60;8.37;;;;;;;;;;5036744;28;20188;-74
2023/10/06 02:48:33;;;;;;;13.13;8.30;;;;;;;;;;5053598;28;20204;-75
2023/10/06 02:51:01;;;;;;;16.40;8.07;;;;;;;;;;5037000;28;20180;-75
2023/10/06 02:53:35;;;;;;;12.60;8.10;;;;;;;;;;5053556;28;20184;-75
2023/10/06 02:56:08;;;;;;;18.77;8.40;;;;;;;;;;5033882;28;20283;-77
2023/10/06 02:58:35;;;;;;;14.60;7.20;;;;;;;;;;5051187;28;20192;-78
2023/10/06 03:01:03;;;;;;;10.67;7.63;;;;;;;;;;5053875;28;20298;-78
2023/10/06 03:03:33;;;;;;;14.57;7.90;;;;;;;;;;5053572;28;20184;-78
2023/10/06 03:06:07;;;;;;;11.90;7.07;;;;;;;;;;5053136;28;20261;-78
2023/10/06 03:08:35;;;;;;;19.37;7.63;;;;;;;;;;5041075;28;20194;-78
2023/10/06 03:11:01;;;;;;;12.90;7.10;;;;;;;;;;5043024;28;20181;-78
2023/10/06 03:13:36;;;;;;;18.33;7.70;;;;;;;;;;5049306;28;20183;-77
2023/10/06 03:16:03;;;;;;;13.10;7.60;;;;;;;;;;5050621;28;20198;-77
2023/10/06 03:18:30;;;;;;;15.27;7.50;;;;;;;;;;5036010;28;20210;-78
2023/10/06 03:23:38;;;;;;;15.77;7.40;;;;;;;;;;5054083;28;20186;-78
2023/10/06 03:28:49;;;;;;;15.90;7.50;;;;;;;;;;5053814;28;20215;-78
2023/10/06 03:33:54;;;;;;;14.97;7.50;;;;;;;;;;5053985;28;20246;-75
2023/10/06 03:36:37;;;;;;;18.47;8.47;;;;;;;;;;5051705;28;20185;-78
2023/10/06 03:39:07;;;;;;;15.43;7.77;;;;;;;;;;5052567;28;20184;-77
2023/10/06 03:41:36;;;;;;;16.50;7.37;;;;;;;;;;5019591;28;20208;-78
2023/10/06 03:44:06;;;;;;;16.33;7.17;;;;;;;;;;5047391;28;20245;-78
2023/10/06 03:46:38;;;;;;;14.83;7.60;;;;;;;;;;5035619;28;20354;-74
2023/10/06 03:49:07;;;;;;;10.90;7.33;;;;;;;;;;5053599;28;20188;-74
2023/10/06 03:51:37;;;;;;;14.10;7.13;;;;;;;;;;5035805;28;20183;-75
2023/10/06 03:54:04;;;;;;;12.50;7.23;;;;;;;;;;5053009;28;20207;-77
2023/10/06 03:56:30;;;;;;;14.50;7.20;;;;;;;;;;5058199;28;20176;-77
2023/10/06 03:58:59;;;;;;;15.43;7.27;;;;;;;;;;5060626;28;20196;-75
2023/10/06 04:01:31;;;;;;;16.33;8.00;;;;;;;;;;5052421;28;20464;-75
2023/10/06 04:04:00;;;;;;;14.37;6.97;;;;;;;;;;5036902;28;20188;-78
2023/10/06 04:06:35;;;;;;;10.97;6.80;;;;;;;;;;5037057;28;20200;-78
2023/10/06 04:09:01;;;;;;;12.90;7.40;;;;;;;;;;5036645;28;20183;-77
2023/10/06 04:11:30;;;;;;;12.83;7.13;;;;;;;;;;5052761;28;20184;-78
2023/10/06 04:13:56;;;;;;;12.90;7.30;;;;;;;;;;5036892;28;20203;-78
2023/10/06 04:16:23;;;;;;;17.03;7.70;;;;;;;;;;5035720;28;20202;-77
2023/10/06 04:18:49;;;;;;;14.20;7.63;;;;;;;;;;5052650;28;20184;-77
2023/10/06 04:21:15;;;;;;;14.43;7.30;;;;;;;;;;5025313;28;20303;-77
2023/10/06 04:23:41;;;;;;;16.70;7.87;;;;;;;;;;5045360;28;20175;-77
2023/10/06 04:26:08;;;;;;;15.53;7.27;;;;;;;;;;5073959;28;20183;-77
2023/10/06 04:28:34;;;;;;;12.43;7.27;;;;;;;;;;5072144;28;20179;-77
2023/10/06 04:31:05;;;;;;;15.97;7.17;;;;;;;;;;5040802;28;20256;-78
2023/10/06 04:33:31;;;;;;;9.70;6.97;;;;;;;;;;5054559;28;20176;-78
2023/10/06 04:36:07;;;;;;;10.10;6.43;;;;;;;;;;5055088;28;20176;-78
2023/10/06 04:38:37;;;;;;;14.63;7.70;;;;;;;;;;5038863;28;20205;-78
2023/10/06 04:41:03;;;;;;;13.77;7.28;;;;;;;;;;5037182;28;20436;-74
2023/10/06 04:43:29;;;;;;;15.33;7.80;;;;;;;;;;5057574;23;20226;-78
2023/10/06 04:45:55;;;;;;;13.07;6.90;;;;;;;;;;5096692;28;20190;-78
2023/10/06 04:48:21;;;;;;;11.60;7.40;;;;;;;;;;5098264;28;20178;-78
2023/10/06 04:50:56;;;;;;;13.20;7.00;;;;;;;;;;5118156;28;20198;-77
2023/10/06 04:53:22;;;;;;;16.23;7.20;;;;;;;;;;5084931;28;20177;-75
2023/10/06 04:55:48;;;;;;;12.50;7.17;;;;;;;;;;5100057;28;20180;-76
2023/10/06 04:58:15;;;;;;;15.13;7.03;;;;;;;;;;5099706;28;20166;-76
2023/10/06 05:00:49;;;;;;;12.33;6.70;;;;;;;;;;5121130;27;20234;-76
2023/10/06 05:03:15;;;;;;;15.27;7.07;;;;;;;;;;5089604;28;20192;-75
2023/10/06 05:05:42;;;;;;;12.53;6.30;;;;;;;;;;5082529;28;20177;-76
2023/10/06 05:08:09;;;;;;;13.57;7.10;;;;;;;;;;5114616;27;20177;-76
2023/10/06 05:10:36;;;;;;;17.07;7.43;;;;;;;;;;5126191;27;20209;-76
2023/10/06 05:13:06;;;;;;;13.20;7.27;;;;;;;;;;5096008;28;20170;-76
2023/10/06 05:15:33;;;;;;;12.80;7.53;;;;;;;;;;5089193;28;20182;-74
2023/10/06 05:18:03;;;;;;;11.70;7.47;;;;;;;;;;5101845;28;20252;-74
2023/10/06 05:20:33;;;;;;;15.67;7.53;;;;;;;;;;5111853;28;20178;-74
2023/10/06 05:23:05;;;;;;;10.10;7.00;;;;;;;;;;5117635;27;20204;-74
2023/10/06 05:25:31;;;;;;;15.93;7.70;;;;;;;;;;5094700;28;20202;-74
2023/10/06 05:28:01;;;;;;;16.83;8.20;;;;;;;;;;5086484;28;20183;-75
2023/10/06 05:30:28;;;;;;;14.03;7.57;;;;;;;;;;5098872;28;20202;-75
2023/10/06 05:32:58;;;;;;;14.90;7.47;;;;;;;;;;5116985;28;20213;-74
2023/10/06 05:35:29;;;;;;;14.13;7.30;;;;;;;;;;5097920;28;20231;-76
2023/10/06 05:37:55;;;;;;;14.17;7.13;;;;;;;;;;5115330;27;20181;-76
2023/10/06 05:40:21;;;;;;;12.17;7.00;;;;;;;;;;5079980;28;20179;-75
2023/10/06 05:42:50;;;;;;;12.80;7.43;;;;;;;;;;5098818;28;20212;-75
2023/10/06 05:45:18;;;;;;;15.13;7.40;;;;;;;;;;5087686;28;20225;-75
2023/10/06 05:47:54;;;;;;;7.70;6.83;;;;;;;;;;5100694;27;20186;-76
2023/10/06 05:50:28;;;;;;;12.93;8.20;;;;;;;;;;5101018;28;20245;-74
2023/10/06 05:53:09;;;;;;;12.80;8.33;;;;;;;;;;5117320;28;20181;-75
2023/10/06 05:55:37;;;;;;;17.13;9.63;;;;;;;;;;5104216;28;20287;-74
2023/10/06 05:58:04;;;;;;;18.47;10.60;;;;;;;;;;5096258;28;20189;-74
2023/10/06 06:00:31;;;;;;;16.03;11.03;;;;;;;;;;5077789;28;20181;-75
2023/10/06 06:02:58;;;;;;;20.23;11.33;;;;;;;;;;5062249;28;20178;-76
2023/10/06 06:05:29;;;;;;;17.53;11.50;;;;;;;;;;5118665;27;20178;-76
2023/10/06 06:08:03;;;;;;;17.83;11.30;;;;;;;;;;5078093;28;20213;-76
2023/10/06 06:10:30;;;;;;;16.20;10.63;;;;;;;;;;5095835;28;20209;-76
2023/10/06 06:12:57;;;;;;;16.77;9.03;;;;;;;;;;5078181;28;20179;-76
2023/10/06 06:15:25;;;;;;;14.37;8.37;;;;;;;;;;5083002;27;20182;-75
2023/10/06 06:17:51;;;;;;;15.67;8.03;;;;;;;;;;5098160;28;20221;-76
2023/10/06 06:20:21;;;;;;;12.07;7.00;;;;;;;;;;5098233;28;20174;-76
2023/10/06 06:22:53;;;;;;;10.20;6.53;;;;;;;;;;5082620;28;20266;-76
2023/10/06 06:25:20;;;;;;;12.03;7.07;;;;;;;;;;5082192;28;20184;-76
2023/10/06 06:27:46;;;;;;;13.77;6.70;;;;;;;;;;5098466;28;20174;-76
2023/10/06 06:30:18;;;;;;;11.03;5.97;;;;;;;;;;5098571;28;20231;-78
2023/10/06 06:32:44;;;;;;;12.80;6.50;;;;;;;;;;5081949;28;20185;-76
2023/10/06 06:35:13;;;;;;;11.43;6.13;;;;;;;;;;5109874;27;20188;-76
2023/10/06 06:37:42;;;;;;;10.83;6.17;;;;;;;;;;5118463;27;20185;-78
2023/10/06 06:40:10;;;;;;;11.90;6.10;;;;;;;;;;5136265;27;20180;-78
2023/10/06 06:42:36;;;;;;;9.70;5.63;;;;;;;;;;5100300;27;20197;-75
2023/10/06 06:45:03;;;;;;;10.90;5.97;;;;;;;;;;5082696;28;20230;-75
2023/10/06 06:47:29;;;;;;;15.07;5.67;;;;;;;;;;5097884;28;20178;-75
2023/10/06 06:49:55;;;;;;;13.57;6.37;;;;;;;;;;5097673;28;20284;-78
2023/10/06 06:52:22;;;;;;;12.63;6.37;;;;;;;;;;5081322;28;20182;-78
2023/10/06 06:54:48;;;;;;;12.83;5.97;;;;;;;;;;5098014;28;20177;-78
2023/10/06 06:57:19;;;;;;;13.73;6.10;;;;;;;;;;5097931;28;20269;-78
2023/10/06 06:59:46;;;;;;;8.47;5.40;;;;;;;;;;5097512;28;20180;-78
2023/10/06 07:02:11;;;;;;;10.33;5.40;;;;;;;;;;5115070;28;20197;-78
2023/10/06 07:04:38;;;;;;;9.70;5.80;;;;;;;;;;5115562;28;20185;-78
2023/10/06 07:07:04;;;;;;;10.50;5.70;;;;;;;;;;5097424;28;20182;-78
2023/10/06 07:09:30;;;;;;;9.53;5.97;;;;;;;;;;5100512;27;20268;-78
2023/10/06 07:11:56;;;;;;;12.07;5.70;;;;;;;;;;5101312;27;20250;-78
2023/10/06 07:14:22;;;;;;;13.80;6.27;;;;;;;;;;5111789;28;20181;-78
2023/10/06 07:16:48;;;;;;;11.70;6.10;;;;;;;;;;5080554;28;20274;-78
2023/10/06 07:19:14;;;;;;;10.17;5.87;;;;;;;;;;5080689;28;20182;-78
2023/10/06 07:21:41;;;;;;;11.83;5.87;;;;;;;;;;5080495;28;20214;-78
2023/10/06 07:24:10;;;;;;;11.63;5.90;;;;;;;;;;5108976;28;20185;-75
2023/10/06 07:26:36;;;;;;;11.93;5.80;;;;;;;;;;5100520;27;20177;-75
2023/10/06 07:29:05;;;;;;;9.13;5.70;;;;;;;;;;5117064;28;20192;-75
2023/10/06 07:31:32;;;;;;;9.43;5.67;;;;;;;;;;5117550;27;20173;-78
2023/10/06 07:33:59;;;;;;;10.10;5.90;;;;;;;;;;5117289;27;20212;-78
2023/10/06 07:36:25;;;;;;;10.77;5.57;;;;;;;;;;5117617;27;20293;-78
2023/10/06 07:38:52;;;;;;;13.40;6.00;;;;;;;;;;5117359;28;20181;-78
2023/10/06 07:41:18;;;;;;;10.63;5.80;;;;;;;;;;5117646;28;20201;-76
2023/10/06 07:43:48;;;;;;;11.97;6.43;;;;;;;;;;5100293;28;20252;-75
2023/10/06 07:46:15;;;;;;;11.63;6.10;;;;;;;;;;5136140;28;20176;-76
2023/10/06 07:48:42;;;;;;;9.57;6.07;;;;;;;;;;5117590;28;20169;-76
2023/10/06 07:51:08;;;;;;;11.10;6.27;;;;;;;;;;5117021;28;20177;-76
2023/10/06 07:53:38;;;;;;;7.63;5.57;;;;;;;;;;5117368;28;20180;-76
2023/10/06 07:56:09;;;;;;;11.57;6.10;;;;;;;;;;5117352;28;20177;-77
2023/10/06 07:58:40;;;;;;;11.43;6.03;;;;;;;;;;5135431;28;20169;-78
2023/10/06 08:01:08;;;;;;;12.50;6.40;;;;;;;;;;5135337;28;20338;-78
2023/10/06 08:03:38;;;;;;;13.27;5.80;;;;;;;;;;5117281;28;20170;-78
2023/10/06 08:06:14;;;;;;;10.13;6.00;;;;;;;;;;5117790;28;20181;-78
2023/10/06 08:08:40;;;;;;;10.33;5.60;;;;;;;;;;5117333;28;20184;-78
2023/10/06 08:11:07;;;;;;;10.47;5.80;;;;;;;;;;5135317;28;20184;-78
2023/10/06 08:13:38;;;;;;;10.00;5.57;;;;;;;;;;5117168;28;20207;-78
2023/10/06 08:16:06;;;;;;;10.33;5.83;;;;;;;;;;5117480;28;20177;-78
2023/10/06 08:18:32;;;;;;;10.93;5.57;;;;;;;;;;5117565;28;20177;-75
2023/10/06 08:21:03;;;;;;;11.50;6.10;;;;;;;;;;5115953;28;20440;-75
2023/10/06 08:23:31;;;;;;;10.43;5.53;;;;;;;;;;5120962;27;20161;-75
2023/10/06 08:25:57;;;;;;;10.20;5.43;;;;;;;;;;5121334;27;20204;-75
2023/10/06 08:28:27;;;;;;;10.53;5.10;;;;;;;;;;5120738;27;20218;-78
2023/10/06 08:30:53;;;;;;;8.53;5.00;;;;;;;;;;5121071;27;20184;-78
2023/10/06 08:33:19;;;;;;;10.83;4.83;;;;;;;;;;5104442;27;20216;-78
2023/10/06 08:35:45;;;;;;;8.57;5.27;;;;;;;;;;5139291;27;20252;-78
2023/10/06 08:38:11;;;;;;;11.67;5.20;;;;;;;;;;5104391;27;20185;-78
2023/10/06 08:40:41;;;;;;;9.53;5.10;;;;;;;;;;5139143;27;20192;-75
2023/10/06 08:43:08;;;;;;;9.10;5.20;;;;;;;;;;5121579;27;20169;-75
2023/10/06 08:45:40;;;;;;;11.23;4.93;;;;;;;;;;5103865;27;20221;-75
2023/10/06 08:48:09;;;;;;;11.77;5.60;;;;;;;;;;5139066;27;20169;-76
2023/10/06 08:50:37;;;;;;;11.60;5.40;;;;;;;;;;5120041;27;20169;-75
2023/10/06 08:53:09;;;;;;;11.10;5.47;;;;;;;;;;5120931;27;20193;-75
2023/10/06 08:55:37;;;;;;;12.03;5.00;;;;;;;;;;5104376;27;20203;-75
2023/10/06 08:58:04;;;;;;;11.17;5.13;;;;;;;;;;5103758;27;20242;-75
2023/10/06 09:00:34;;;;;;;12.73;5.40;;;;;;;;;;5120386;27;20218;-76
2023/10/06 09:03:10;;;;;;;13.50;5.30;;;;;;;;;;5138499;27;20166;-78
2023/10/06 09:05:40;;;;;;;13.83;5.40;;;;;;;;;;5120442;27;20169;-79
2023/10/06 09:08:07;;;;;;;10.73;5.07;;;;;;;;;;5120498;27;20185;-79
2023/10/06 09:10:34;;;;;;;9.87;5.30;;;;;;;;;;5120676;27;20174;-79
2023/10/06 09:13:01;;;;;;;8.90;5.27;;;;;;;;;;5120447;27;20178;-78
2023/10/06 09:15:28;;;;;;;9.00;5.27;;;;;;;;;;5120356;27;20216;-78
2023/10/06 09:17:54;;;;;;;9.30;4.87;;;;;;;;;;5139125;27;20181;-79
2023/10/06 09:20:39;;;;;;;10.87;5.20;;;;;;;;;;5138696;27;20181;-77
2023/10/06 09:23:06;;;;;;;12.20;4.70;;;;;;;;;;5138330;27;20165;-79
2023/10/06 09:25:42;;;;;;;9.07;5.23;;;;;;;;;;5102927;27;20184;-79
2023/10/06 09:28:13;;;;;;;9.90;5.55;;;;;;;;;;5119483;27;20400;-79
2023/10/06 09:31:01;;;;;;;8.47;5.47;;;;;;;;;;5103533;27;20173;-79
2023/10/06 09:33:27;;;;;;;13.03;5.40;;;;;;;;;;5137143;27;20169;-79
2023/10/06 09:36:22;;;;;;;10.53;5.63;;;;;;;;;;5119438;27;20174;-79
2023/10/06 09:38:48;;;;;;;10.23;5.60;;;;;;;;;;5135229;27;20185;-79
2023/10/06 09:41:25;;;;;;;11.70;5.30;;;;;;;;;;5119050;27;20209;-78
2023/10/06 09:43:53;;;;;;;10.97;5.03;;;;;;;;;;5137428;27;20212;-81
2023/10/06 09:46:19;;;;;;;13.30;5.50;;;;;;;;;;5119168;27;20169;-78
2023/10/06 09:48:46;;;;;;;12.93;5.00;;;;;;;;;;5101715;27;20195;-79
2023/10/06 09:51:13;;;;;;;14.57;5.50;;;;;;;;;;5119016;27;20208;-79
2023/10/06 09:53:40;;;;;;;9.83;5.13;;;;;;;;;;5119608;27;20181;-75
2023/10/06 09:56:11;;;;;;;13.43;5.37;;;;;;;;;;5118999;27;20227;-75
2023/10/06 09:58:49;;;;;;;14.07;5.30;;;;;;;;;;5101903;27;20185;-75
2023/10/06 10:01:15;;;;;;;13.03;5.33;;;;;;;;;;5118979;27;20212;-76
2023/10/06 10:03:45;;;;;;;9.37;5.73;;;;;;;;;;5119075;27;20193;-79
2023/10/06 10:06:14;;;;;;;12.20;5.43;;;;;;;;;;5119465;27;20173;-79
2023/10/06 10:08:41;;;;;;;10.90;4.97;;;;;;;;;;5102201;27;20184;-79
2023/10/06 10:11:15;;;;;;;14.63;5.53;;;;;;;;;;5137268;27;20184;-79
2023/10/06 10:13:58;;;;;;;11.73;5.13;;;;;;;;;;5104255;28;20212;-79
2023/10/06 10:16:33;;;;;;;11.67;4.80;;;;;;;;;;5109267;27;20233;-77
2023/10/06 10:19:03;;;;;;;9.93;5.13;;;;;;;;;;5119355;27;20173;-80
2023/10/06 10:21:32;;;;;;;10.10;4.37;;;;;;;;;;5118599;27;20231;-79
2023/10/06 10:24:03;;;;;;;10.93;4.63;;;;;;;;;;5136752;27;20166;-77
2023/10/06 10:26:29;;;;;;;9.83;4.67;;;;;;;;;;5102787;27;20204;-79
2023/10/06 10:29:13;;;;;;;11.63;4.80;;;;;;;;;;5118915;27;20218;-79
2023/10/06 10:31:39;;;;;;;9.63;4.60;;;;;;;;;;5139236;27;20165;-79
2023/10/06 10:34:08;;;;;;;11.00;4.50;;;;;;;;;;5118562;27;20318;-78
2023/10/06 10:36:35;;;;;;;9.55;5.05;;;;;;;;;;5136113;27;20484;-78
2023/10/06 10:39:03;;;;;;;9.77;4.72;;;;;;;;;;5119009;27;20072;-78
2023/10/06 10:41:37;;;;;;;9.20;4.87;;;;;;;;;;5118595;27;20205;-78
2023/10/06 10:44:04;;;;;;;9.27;4.80;;;;;;;;;;5118081;27;20476;-76
2023/10/06 10:46:31;;;;;;;9.75;4.50;;;;;;;;;;5117396;27;20398;-76
2023/10/06 10:49:01;;;;;;;10.80;5.32;;;;;;;;;;5118137;27;20405;-77
2023/10/06 10:51:33;;;;;;;7.85;4.68;;;;;;;;;;5117342;27;20488;-76
2023/10/06 10:54:00;;;;;;;10.20;4.77;;;;;;;;;;5117606;27;20405;-76
2023/10/06 10:56:34;;;;;;;7.95;4.75;;;;;;;;;;5100430;27;20409;-77
2023/10/06 10:59:00;;;;;;;11.68;5.40;;;;;;;;;;5117610;27;20406;-76
2023/10/06 11:01:47;;;;;;;11.10;5.18;;;;;;;;;;5117277;27;20425;-75
2023/10/06 11:06:55;;;;;;;13.65;4.93;;;;;;;;;;5135251;27;20392;-75
2023/10/06 11:09:40;;;;;;;9.23;4.77;;;;;;;;;;5117209;27;20393;-75
2023/10/06 11:12:24;;;;;;;9.97;4.73;;;;;;;;;;5136202;27;20172;-76
2023/10/06 11:14:50;;;;;;;11.37;4.47;;;;;;;;;;5118139;27;20173;-75
2023/10/06 11:17:20;;;;;;;13.40;4.87;;;;;;;;;;5101237;27;20209;-75
2023/10/06 11:19:46;;;;;;;7.47;4.40;;;;;;;;;;5118258;27;20181;-75
2023/10/06 11:22:13;;;;;;;8.30;4.50;;;;;;;;;;5136044;27;20208;-75
2023/10/06 11:24:40;;;;;;;9.57;4.50;;;;;;;;;;5117813;28;20173;-75
2023/10/06 11:27:22;;;;;;;7.80;4.30;;;;;;;;;;5117488;28;20204;-75
2023/10/06 11:29:50;;;;;;;9.63;4.40;;;;;;;;;;5135715;27;20173;-75
2023/10/06 11:32:17;;;;;;;9.27;4.30;;;;;;;;;;5117666;28;20185;-75
2023/10/06 11:34:44;;;;;;;9.07;4.97;;;;;;;;;;5100649;27;20409;-76
2023/10/06 11:37:10;;;;;;;9.50;4.38;;;;;;;;;;5116950;28;20394;-76
2023/10/06 11:39:37;;;;;;;8.80;4.63;;;;;;;;;;5117912;28;20173;-76
2023/10/06 11:42:22;;;;;;;9.13;4.50;;;;;;;;;;5100817;28;20425;-76
2023/10/06 11:44:48;;;;;;;8.43;4.80;;;;;;;;;;5116985;28;20496;-76
2023/10/06 11:47:14;;;;;;;9.98;4.85;;;;;;;;;;5099666;28;20402;-78
2023/10/06 11:49:59;;;;;;;10.18;4.95;;;;;;;;;;5099746;28;20489;-76
2023/10/06 11:52:26;;;;;;;9.27;4.70;;;;;;;;;;5135154;28;20401;-76
2023/10/06 11:54:52;;;;;;;11.37;4.93;;;;;;;;;;5117739;28;20178;-76
2023/10/06 11:57:22;;;;;;;11.33;4.83;;;;;;;;;;5118394;27;20191;-76
2023/10/06 11:59:48;;;;;;;9.47;4.37;;;;;;;;;;5121726;27;20218;-76
2023/10/06 12:02:15;;;;;;;10.83;4.40;;;;;;;;;;5121544;27;20209;-76
2023/10/06 12:04:41;;;;;;;12.13;5.20;;;;;;;;;;5104150;27;20409;-76
2023/10/06 12:07:09;;;;;;;9.75;5.20;;;;;;;;;;5139862;27;20401;-79
2023/10/06 12:09:35;;;;;;;10.30;4.72;;;;;;;;;;5104944;27;20406;-79
2023/10/06 12:12:01;;;;;;;9.48;5.13;;;;;;;;;;5121284;27;20449;-79
2023/10/06 12:14:28;;;;;;;11.48;5.30;;;;;;;;;;5138690;27;20393;-78
2023/10/06 12:16:54;;;;;;;11.33;5.50;;;;;;;;;;5103375;27;20398;-78
2023/10/06 12:19:23;;;;;;;13.50;5.60;;;;;;;;;;5138426;27;20485;-79
2023/10/06 12:21:50;;;;;;;10.98;5.45;;;;;;;;;;5120398;27;20443;-79
2023/10/06 12:24:16;;;;;;;9.88;5.43;;;;;;;;;;5103634;27;20413;-78
2023/10/06 12:26:46;;;;;;;11.15;5.53;;;;;;;;;;5120798;27;20444;-79
2023/10/06 12:29:16;;;;;;;10.50;5.55;;;;;;;;;;5121796;27;20452;-80
2023/10/06 12:31:42;;;;;;;9.50;5.55;;;;;;;;;;5103993;27;20474;-78
2023/10/06 12:34:08;;;;;;;12.63;5.80;;;;;;;;;;5103302;27;20496;-78
2023/10/06 12:36:35;;;;;;;11.80;5.70;;;;;;;;;;5138760;27;20425;-78
2023/10/06 12:39:04;;;;;;;9.18;5.78;;;;;;;;;;5138787;27;20413;-78
2023/10/06 12:41:30;;;;;;;10.10;6.10;;;;;;;;;;5103627;27;20425;-76
2023/10/06 12:44:03;;;;;;;12.70;5.63;;;;;;;;;;5120485;27;20497;-76
2023/10/06 12:46:29;;;;;;;10.63;5.80;;;;;;;;;;5138222;27;20461;-77
2023/10/06 12:48:55;;;;;;;11.23;6.20;;;;;;;;;;5103567;27;20553;-77
2023/10/06 12:51:21;;;;;;;10.48;5.63;;;;;;;;;;5103413;27;20569;-76
2023/10/06 12:53:47;;;;;;;11.10;6.03;;;;;;;;;;5119956;27;20433;-77
2023/10/06 12:56:13;;;;;;;14.10;5.85;;;;;;;;;;5102973;27;20413;-74
2023/10/06 12:58:39;;;;;;;12.43;5.70;;;;;;;;;;5119845;27;20401;-75
2023/10/06 13:01:07;;;;;;;9.60;5.43;;;;;;;;;;5119270;27;20461;-74
2023/10/06 13:03:33;;;;;;;11.48;5.85;;;;;;;;;;5119558;27;20397;-75
2023/10/06 13:06:03;;;;;;;11.68;5.82;;;;;;;;;;5102691;27;20409;-75
2023/10/06 13:08:29;;;;;;;10.23;6.00;;;;;;;;;;5102464;27;20407;-75
2023/10/06 13:10:55;;;;;;;10.47;5.70;;;;;;;;;;5102987;27;20405;-74
2023/10/06 13:13:22;;;;;;;12.40;5.82;;;;;;;;;;5102361;27;20398;-78
2023/10/06 13:15:48;;;;;;;10.30;5.93;;;;;;;;;;5119272;27;20406;-77
2023/10/06 13:18:17;;;;;;;10.90;5.72;;;;;;;;;;5119340;27;20394;-77
2023/10/06 13:20:43;;;;;;;11.38;5.82;;;;;;;;;;5137520;27;20404;-78
2023/10/06 13:23:09;;;;;;;10.13;5.93;;;;;;;;;;5137461;27;20562;-77
2023/10/06 13:25:38;;;;;;;9.60;5.90;;;;;;;;;;5119395;27;20397;-77
2023/10/06 13:28:04;;;;;;;9.52;5.40;;;;;;;;;;5119627;27;20412;-78
2023/10/06 13:30:32;;;;;;;13.02;6.00;;;;;;;;;;5119074;27;20397;-78
2023/10/06 13:32:59;;;;;;;11.02;6.20;;;;;;;;;;5119518;27;20397;-78
2023/10/06 13:35:26;;;;;;;11.32;6.20;;;;;;;;;;5118778;27;20417;-78
2023/10/06 13:37:57;;;;;;;11.37;6.30;;;;;;;;;;5118913;27;20430;-78
2023/10/06 13:40:23;;;;;;;10.90;6.40;;;;;;;;;;5136937;27;20412;-78
2023/10/06 13:42:50;;;;;;;11.23;5.80;;;;;;;;;;5118559;27;20520;-78
2023/10/06 13:45:22;;;;;;;12.07;6.00;;;;;;;;;;5136609;27;20421;-77
2023/10/06 13:47:49;;;;;;;9.93;5.78;;;;;;;;;;5136204;27;20458;-78
2023/10/06 13:50:18;;;;;;;12.38;5.90;;;;;;;;;;5094913;28;20409;-79
2023/10/06 13:52:44;;;;;;;10.65;5.60;;;;;;;;;;5078650;28;20492;-79
2023/10/06 13:55:12;;;;;;;11.50;5.68;;;;;;;;;;5098793;28;20410;-79
2023/10/06 13:57:39;;;;;;;11.50;6.03;;;;;;;;;;5098141;28;20480;-79
2023/10/06 14:00:09;;;;;;;10.35;6.10;;;;;;;;;;5098048;28;20430;-79
2023/10/06 14:02:36;;;;;;;11.85;5.90;;;;;;;;;;5116288;28;20423;-79
2023/10/06 14:05:02;;;;;;;10.63;5.70;;;;;;;;;;5116562;28;20395;-78
2023/10/06 14:07:30;;;;;;;11.85;5.70;;;;;;;;;;5097855;28;20410;-78
2023/10/06 14:09:57;;;;;;;10.40;5.80;;;;;;;;;;5098547;28;20406;-78
2023/10/06 14:12:26;;;;;;;13.00;5.90;;;;;;;;;;5097784;28;20490;-78
2023/10/06 14:17:20;;;;;;;13.27;6.15;;;;;;;;;;5116163;28;20479;-78
2023/10/06 14:19:47;;;;;;;12.65;6.13;;;;;;;;;;5081791;28;20522;-76
2023/10/06 14:22:18;;;;;;;12.98;5.88;;;;;;;;;;5081928;28;20574;-76
2023/10/06 14:24:45;;;;;;;12.60;5.90;;;;;;;;;;5097709;28;20403;-76
2023/10/06 14:27:11;;;;;;;10.27;6.35;;;;;;;;;;5098485;28;20474;-75
2023/10/06 14:29:37;;;;;;;13.05;6.10;;;;;;;;;;5080745;28;20395;-76
2023/10/06 14:32:18;;;;;;;10.70;6.07;;;;;;;;;;5080879;28;20407;-76
2023/10/06 14:35:11;;;;;;;11.02;5.60;;;;;;;;;;5082414;28;20527;-76
2023/10/06 14:37:42;;;;;;;12.45;6.07;;;;;;;;;;5101057;28;20407;-79
2023/10/06 14:48:28;;;;;;;11.40;6.28;;;;;;;;;;5116165;28;20438;-79
2023/10/06 14:50:59;;;;;;;10.05;5.78;;;;;;;;;;5099194;28;20395;-79
2023/10/06 14:53:25;;;;;;;14.80;6.55;;;;;;;;;;5097401;28;20402;-79
2023/10/06 14:55:52;;;;;;;12.15;6.18;;;;;;;;;;5097228;28;20429;-75
2023/10/06 14:58:19;;;;;;;10.18;5.82;;;;;;;;;;5080363;28;20400;-75
2023/10/06 15:00:46;;;;;;;11.75;6.30;;;;;;;;;;5096644;28;20420;-76
2023/10/06 15:03:16;;;;;;;13.25;6.00;;;;;;;;;;5079823;28;20431;-78
2023/10/06 15:05:42;;;;;;;12.23;5.33;;;;;;;;;;5115425;28;20177;-78
2023/10/06 15:08:12;;;;;;;12.13;6.17;;;;;;;;;;5097508;28;20185;-79
2023/10/06 15:10:48;;;;;;;10.03;6.17;;;;;;;;;;5081647;28;20238;-78
2023/10/06 15:13:14;;;;;;;10.83;5.70;;;;;;;;;;5080746;28;20182;-78
2023/10/06 15:15:42;;;;;;;11.10;5.97;;;;;;;;;;5097405;28;20178;-78